x

Cape Cleare - 17 Nm South Of Montague Is, Ak (46076) Wave Buoy

9:50pm - Thu 29th Jan 2015 All times are AKST. -9 hours from GMT.

  • Sig Wave height 6.6ft
  • Peak Period 9s
  • Average Period 6s
  • Wind
    2mph, 4mph gusts
  • Sea Temp 44°f
  • Air Temp 39°f
  • Sea Pressure 1019.7mb
  • Cape Cleare - 17 Nm South Of Montague Is,  Ak
  • Cape Cleare - 17 Nm South Of Montague Is,  Ak

More Historic Weather Station data

Upgrade to MSW Pro to gain access to the past 30 days of data for over 8000 Wavebouys and Weather Stations around the globe.

Join Pro

Comparision Forecast

View Surf forecast
   
Thu 01/29 9:50pm 6.5ft 9s 6s 2 4 mph 1019.7mb 44f 39f
8:50pm  -   -   -  4 7 mph 1018.8mb 44f 39f
6:50pm  -   -   -  11 13 mph 1017.4mb 44f 39f
5:50pm 7ft 9s 6s 11 13 mph 1016.4mb 44f 41f
4:50pm  -   -   -  11
mph
- - 42f
3:50pm 7ft 10s 6s 11 13 mph 1015.1mb 44f 42f
2:50pm 7ft 9s 6s 11 16 mph 1014.8mb 44f 41f
1:50pm  -   -   -  11 18 mph 1014.2mb 44f 42f
12:50pm 8ft 10s  -  13 16 mph 1013.6mb 44f 42f
11:50am 8.5ft 10s 6s 20 22 mph 1013.1mb 44f 41f
10:50am 8ft 10s 6s 20 25 mph 1012.6mb 44f 41f
8:50am 9ft 10s 6s 9 13 mph 1011.5mb 44f 41f
7:50am 9ft 10s 6s 13 18 mph 1011mb 44f 41f
6:50am  -   -   -  22 27 mph 1010.5mb 44f 41f
5:50am 8.5ft 9s 6s 22 27 mph 1010.1mb 44f 41f
4:50am 8.5ft 9s 5s 22 27 mph 1009.8mb 44f 41f
3:50am  -   -   -  27 34 mph 1009.5mb 44f 39f
2:50am  -   -   -  27 31 mph 1009.4mb 44f 40f
1:50am  -   -   -  29
mph
1008.9mb 44f 39f
12:50am  -   -   -  31 36 mph 1008.6mb 44f 39f
Wed 01/28 9:50pm 11.5ft 10s 6s 31 38 mph 1007.7mb 44f 38f
8:50pm  -   -   -  27 31 mph 1007.8mb 44f 38f
7:50pm  -   -   -  20 25 mph 1008.1mb 44f 35f
6:50pm  -   -   -  22 29 mph 1008.3mb 44f 36f
5:50pm  -   -   -  25
mph
- - -
3:50pm  -   -   -  20 29 mph 1009.5mb 44f 40f
1:50pm  -   -   -  22 27 mph 1010.7mb 45f 40f
12:50pm  -   -   -  22
mph
- - -
10:50am  -   -   -  25 31 mph 1011.9mb 45f 40f
9:50am  -   -   -  29
mph
- - 40f
8:50am 10ft 7s 6s 27 31 mph 1012.1mb 44f 40f
7:50am  -   -   -  29 34 mph 1012.3mb 44f 39f
6:50am  -   -   -  27
mph
1012.8mb 44f 39f
5:50am  -   -   -  29 34 mph 1013mb 44f 39f
4:50am 9ft 7s 5s 29 34 mph 1013.3mb 44f 38f
3:50am  -   -   -  29
mph
1013.4mb 44f 39f
2:50am  -   -   -  27
mph
1013.7mb - 37f
1:50am 6ft 6s 5s 25 29 mph 1014mb 44f 37f
Tue 01/27 10:50pm  -   -   -  22 27 mph 1014.2mb 44f 35f
9:50pm  -   -   -  25 29 mph 1013.8mb 44f 36f
8:50pm 4ft 8s 4s 18 20 mph 1013.6mb 44f 35f
7:50pm  -   -   -  16
mph
- - 36f
6:50pm 4.5ft 10s 5s 20 22 mph 1013.1mb 44f 36f
5:50pm 4.5ft 10s 5s 16 20 mph 1012.8mb 44f 37f
4:50pm 4.5ft 10s 5s 18 20 mph 1012.7mb 44f 37f
3:50pm 4.5ft 10s 6s 16 18 mph 1012.6mb 44f 37f
2:50pm 5ft 10s 6s 11 16 mph 1012.6mb 44f 38f
1:50pm 4.5ft 9s 6s 13 16 mph 1012.7mb 44f 38f
11:50am 4.5ft 9s 6s 13 16 mph 1012.8mb 44f 38f
8:50am 5ft 10s 7s 9 13 mph 1011.6mb 44f 37f
7:50am 4.5ft 10s 6s 9 16 mph 1011.3mb 44f 37f
6:50am 4.5ft 10s 7s 7 11 mph 1011.1mb 44f 37f
5:50am 4.5ft 9s 6s 9 13 mph 1011.1mb 44f 37f
4:50am 4.5ft 10s 6s 9 13 mph 1011.2mb 44f 37f
3:50am 5ft 10s 6s 9 11 mph 1011.4mb 44f 37f
2:50am 5ft 10s 6s 11 16 mph 1011.5mb 44f 36f
1:50am  -   -   -  13 16 mph 1011.7mb 44f 36f
12:50am 5ft 9s 6s 13 18 mph 1011.7mb 44f 35f
Mon 01/26 11:50pm  -   -   -  13 16 mph 1011.7mb 44f 35f
10:50pm  -   -   -  11 16 mph 1011.7mb 44f 35f
9:50pm  -   -   -  9 11 mph 1011.8mb 44f 35f
7:50pm  -   -   -  7 9 mph 1011.7mb 44f 35f
6:50pm  -   -   -  7 11 mph 1011.5mb 44f 34f
5:50pm  -   -   -  9 11 mph 1011.7mb 44f 34f
4:50pm  -   -   -  4 7 mph 1011.8mb 44f 34f
3:50pm 5ft 10s 7s 2 4 mph 1012.1mb 44f 33f
2:50pm 5.5ft 10s 8s 4 9 mph 1012.3mb 44f 33f
1:50pm 5ft 10s 7s 2 4 mph 1012.6mb 44f 33f
12:50pm 5ft 10s 7s 2 7 mph 1012.9mb 44f 33f
11:50am 4.5ft 10s 6s 7 9 mph 1012.9mb 44f 34f
10:50am  -   -   -  4
mph
- - 33f
9:50am  -   -   -  2 4 mph 1012.5mb 44f 33f
8:50am  -   -   -  4 7 mph 1012.4mb 44f 32f